sensor_id;sensor_type;location;lat;lon;timestamp;pressure;altitude;pressure_sealevel;temperature;humidity
48041;BME280;33815;48.386;11.738;2023-04-25T00:00:33;95891.56;;;3.10;100.00
48041;BME280;33815;48.386;11.738;2023-04-25T00:02:58;95916.47;;;3.21;100.00
48041;BME280;33815;48.386;11.738;2023-04-25T00:05:26;95915.91;;;3.17;100.00
48041;BME280;33815;48.386;11.738;2023-04-25T00:07:51;95916.84;;;3.16;100.00
48041;BME280;33815;48.386;11.738;2023-04-25T00:10:17;95915.19;;;3.15;100.00
48041;BME280;33815;48.386;11.738;2023-04-25T00:12:42;95905.81;;;3.14;100.00
48041;BME280;33815;48.386;11.738;2023-04-25T00:15:08;95914.00;;;3.19;100.00
48041;BME280;33815;48.386;11.738;2023-04-25T00:17:34;95896.34;;;3.15;100.00
48041;BME280;33815;48.386;11.738;2023-04-25T00:20:00;95889.44;;;3.15;100.00
48041;BME280;33815;48.386;11.738;2023-04-25T00:22:26;95896.56;;;3.23;100.00
48041;BME280;33815;48.386;11.738;2023-04-25T00:24:51;95912.13;;;3.33;100.00
48041;BME280;33815;48.386;11.738;2023-04-25T00:27:18;95913.72;;;3.34;100.00
48041;BME280;33815;48.386;11.738;2023-04-25T00:29:43;95911.88;;;3.36;100.00
48041;BME280;33815;48.386;11.738;2023-04-25T00:32:09;95895.94;;;3.31;100.00
48041;BME280;33815;48.386;11.738;2023-04-25T00:34:34;95885.09;;;3.27;100.00
48041;BME280;33815;48.386;11.738;2023-04-25T00:37:00;95901.31;;;3.39;100.00
48041;BME280;33815;48.386;11.738;2023-04-25T00:39:27;95899.91;;;3.35;100.00
48041;BME280;33815;48.386;11.738;2023-04-25T00:41:53;95922.13;;;3.47;100.00
48041;BME280;33815;48.386;11.738;2023-04-25T00:44:19;95917.44;;;3.52;100.00
48041;BME280;33815;48.386;11.738;2023-04-25T00:46:47;95906.50;;;3.60;100.00
48041;BME280;33815;48.386;11.738;2023-04-25T00:49:12;95917.25;;;3.65;100.00
48041;BME280;33815;48.386;11.738;2023-04-25T00:51:42;95904.94;;;3.69;100.00
48041;BME280;33815;48.386;11.738;2023-04-25T00:54:10;95911.00;;;3.79;100.00
48041;BME280;33815;48.386;11.738;2023-04-25T00:56:36;95896.84;;;3.73;100.00
48041;BME280;33815;48.386;11.738;2023-04-25T00:59:01;95900.31;;;3.84;100.00
48041;BME280;33815;48.386;11.738;2023-04-25T01:01:27;95895.91;;;3.96;100.00
48041;BME280;33815;48.386;11.738;2023-04-25T01:03:53;95887.47;;;3.93;100.00
48041;BME280;33815;48.386;11.738;2023-04-25T01:06:19;95896.47;;;3.99;100.00
48041;BME280;33815;48.386;11.738;2023-04-25T01:08:45;95899.84;;;4.00;100.00
48041;BME280;33815;48.386;11.738;2023-04-25T01:11:10;95886.81;;;3.91;100.00
48041;BME280;33815;48.386;11.738;2023-04-25T01:13:36;95896.22;;;4.02;100.00
48041;BME280;33815;48.386;11.738;2023-04-25T01:16:02;95895.00;;;4.06;100.00
48041;BME280;33815;48.386;11.738;2023-04-25T01:18:28;95901.94;;;4.06;100.00
48041;BME280;33815;48.386;11.738;2023-04-25T01:20:54;95897.97;;;4.02;100.00
48041;BME280;33815;48.386;11.738;2023-04-25T01:23:20;95900.69;;;4.00;100.00
48041;BME280;33815;48.386;11.738;2023-04-25T01:25:46;95902.44;;;4.00;100.00
48041;BME280;33815;48.386;11.738;2023-04-25T01:28:12;95900.50;;;3.92;100.00
48041;BME280;33815;48.386;11.738;2023-04-25T01:30:38;95891.75;;;3.83;100.00
48041;BME280;33815;48.386;11.738;2023-04-25T01:33:04;95884.91;;;3.72;100.00
48041;BME280;33815;48.386;11.738;2023-04-25T01:35:30;95896.38;;;3.68;100.00
48041;BME280;33815;48.386;11.738;2023-04-25T01:37:57;95892.88;;;3.69;100.00
48041;BME280;33815;48.386;11.738;2023-04-25T01:40:24;95889.25;;;3.72;100.00
48041;BME280;33815;48.386;11.738;2023-04-25T01:42:50;95894.16;;;3.75;100.00
48041;BME280;33815;48.386;11.738;2023-04-25T01:45:15;95891.06;;;3.81;100.00
48041;BME280;33815;48.386;11.738;2023-04-25T01:47:41;95881.38;;;3.73;100.00
48041;BME280;33815;48.386;11.738;2023-04-25T01:50:09;95882.66;;;3.79;100.00
48041;BME280;33815;48.386;11.738;2023-04-25T01:52:34;95880.31;;;3.76;100.00
48041;BME280;33815;48.386;11.738;2023-04-25T01:55:01;95874.06;;;3.78;100.00
48041;BME280;33815;48.386;11.738;2023-04-25T01:57:26;95858.66;;;3.67;100.00
48041;BME280;33815;48.386;11.738;2023-04-25T01:59:55;95869.94;;;3.66;100.00
48041;BME280;33815;48.386;11.738;2023-04-25T02:02:23;95872.44;;;3.56;100.00
48041;BME280;33815;48.386;11.738;2023-04-25T02:04:48;95870.72;;;3.46;100.00
48041;BME280;33815;48.386;11.738;2023-04-25T02:07:13;95875.09;;;3.34;100.00
48041;BME280;33815;48.386;11.738;2023-04-25T02:09:39;95867.53;;;3.21;100.00
48041;BME280;33815;48.386;11.738;2023-04-25T02:12:04;95866.88;;;3.07;100.00
48041;BME280;33815;48.386;11.738;2023-04-25T02:14:29;95868.63;;;3.07;100.00
48041;BME280;33815;48.386;11.738;2023-04-25T02:16:55;95866.19;;;2.94;100.00
48041;BME280;33815;48.386;11.738;2023-04-25T02:19:20;95865.84;;;2.87;100.00
48041;BME280;33815;48.386;11.738;2023-04-25T02:21:45;95866.94;;;2.85;100.00
48041;BME280;33815;48.386;11.738;2023-04-25T02:24:11;95871.13;;;2.86;100.00
48041;BME280;33815;48.386;11.738;2023-04-25T02:26:36;95872.19;;;2.83;100.00
48041;BME280;33815;48.386;11.738;2023-04-25T02:29:01;95874.03;;;2.92;100.00
48041;BME280;33815;48.386;11.738;2023-04-25T02:31:27;95867.22;;;3.03;100.00
48041;BME280;33815;48.386;11.738;2023-04-25T02:33:52;95857.59;;;3.16;100.00
48041;BME280;33815;48.386;11.738;2023-04-25T02:36:17;95859.47;;;3.14;100.00
48041;BME280;33815;48.386;11.738;2023-04-25T02:38:42;95866.38;;;3.14;100.00
48041;BME280;33815;48.386;11.738;2023-04-25T02:41:08;95859.28;;;3.06;100.00
48041;BME280;33815;48.386;11.738;2023-04-25T02:43:33;95868.97;;;3.14;100.00
48041;BME280;33815;48.386;11.738;2023-04-25T02:45:58;95858.31;;;3.07;100.00
48041;BME280;33815;48.386;11.738;2023-04-25T02:48:23;95863.59;;;3.05;100.00
48041;BME280;33815;48.386;11.738;2023-04-25T02:50:49;95867.47;;;3.00;100.00
48041;BME280;33815;48.386;11.738;2023-04-25T02:53:14;95862.81;;;2.94;100.00
48041;BME280;33815;48.386;11.738;2023-04-25T02:55:40;95862.69;;;2.95;100.00
48041;BME280;33815;48.386;11.738;2023-04-25T02:58:05;95849.13;;;2.93;100.00
48041;BME280;33815;48.386;11.738;2023-04-25T03:00:31;95861.16;;;3.04;100.00
48041;BME280;33815;48.386;11.738;2023-04-25T03:02:56;95865.34;;;3.16;100.00
48041;BME280;33815;48.386;11.738;2023-04-25T03:05:21;95868.00;;;3.26;100.00
48041;BME280;33815;48.386;11.738;2023-04-25T03:07:46;95848.31;;;3.25;100.00
48041;BME280;33815;48.386;11.738;2023-04-25T03:10:12;95855.75;;;3.39;100.00
48041;BME280;33815;48.386;11.738;2023-04-25T03:12:38;95852.81;;;3.44;100.00
48041;BME280;33815;48.386;11.738;2023-04-25T03:15:03;95843.59;;;3.41;100.00
48041;BME280;33815;48.386;11.738;2023-04-25T03:17:29;95845.66;;;3.48;100.00
48041;BME280;33815;48.386;11.738;2023-04-25T03:19:55;95846.69;;;3.56;100.00
48041;BME280;33815;48.386;11.738;2023-04-25T03:22:20;95828.19;;;3.51;100.00
48041;BME280;33815;48.386;11.738;2023-04-25T03:24:45;95842.16;;;3.70;100.00
48041;BME280;33815;48.386;11.738;2023-04-25T03:27:11;95842.25;;;3.89;100.00
48041;BME280;33815;48.386;11.738;2023-04-25T03:29:36;95844.72;;;3.91;100.00
48041;BME280;33815;48.386;11.738;2023-04-25T03:32:01;95848.63;;;3.85;100.00
48041;BME280;33815;48.386;11.738;2023-04-25T03:34:27;95844.66;;;3.81;100.00
48041;BME280;33815;48.386;11.738;2023-04-25T03:36:52;95838.38;;;3.74;100.00
48041;BME280;33815;48.386;11.738;2023-04-25T03:39:17;95831.84;;;3.70;100.00
48041;BME280;33815;48.386;11.738;2023-04-25T03:41:42;95829.13;;;3.92;100.00
48041;BME280;33815;48.386;11.738;2023-04-25T03:44:08;95839.19;;;3.96;100.00
48041;BME280;33815;48.386;11.738;2023-04-25T03:46:33;95838.50;;;3.93;100.00
48041;BME280;33815;48.386;11.738;2023-04-25T03:48:58;95834.03;;;3.96;100.00
48041;BME280;33815;48.386;11.738;2023-04-25T03:51:24;95833.78;;;3.99;100.00
48041;BME280;33815;48.386;11.738;2023-04-25T03:53:50;95813.72;;;3.81;100.00
48041;BME280;33815;48.386;11.738;2023-04-25T03:56:15;95818.34;;;3.77;100.00
48041;BME280;33815;48.386;11.738;2023-04-25T03:58:40;95830.97;;;3.81;100.00
48041;BME280;33815;48.386;11.738;2023-04-25T04:01:06;95827.06;;;3.86;100.00
48041;BME280;33815;48.386;11.738;2023-04-25T04:03:33;95835.19;;;3.82;100.00
48041;BME280;33815;48.386;11.738;2023-04-25T04:06:00;95843.84;;;3.81;100.00
48041;BME280;33815;48.386;11.738;2023-04-25T04:08:25;95833.22;;;3.74;100.00
48041;BME280;33815;48.386;11.738;2023-04-25T04:10:50;95831.84;;;3.70;100.00
48041;BME280;33815;48.386;11.738;2023-04-25T04:13:16;95830.84;;;3.82;100.00
48041;BME280;33815;48.386;11.738;2023-04-25T04:15:41;95836.56;;;3.86;100.00
48041;BME280;33815;48.386;11.738;2023-04-25T04:18:06;95838.03;;;3.88;100.00
48041;BME280;33815;48.386;11.738;2023-04-25T04:20:31;95816.44;;;3.80;100.00
48041;BME280;33815;48.386;11.738;2023-04-25T04:22:57;95841.19;;;3.92;100.00
48041;BME280;33815;48.386;11.738;2023-04-25T04:25:22;95821.38;;;3.92;100.00
48041;BME280;33815;48.386;11.738;2023-04-25T04:27:47;95827.28;;;4.04;100.00
48041;BME280;33815;48.386;11.738;2023-04-25T04:30:12;95835.44;;;4.09;100.00
48041;BME280;33815;48.386;11.738;2023-04-25T04:32:38;95829.88;;;4.04;100.00
48041;BME280;33815;48.386;11.738;2023-04-25T04:35:04;95820.81;;;4.10;100.00
48041;BME280;33815;48.386;11.738;2023-04-25T04:37:29;95838.78;;;4.21;100.00
48041;BME280;33815;48.386;11.738;2023-04-25T04:39:55;95844.25;;;4.28;100.00
48041;BME280;33815;48.386;11.738;2023-04-25T04:42:20;95838.41;;;4.36;100.00
48041;BME280;33815;48.386;11.738;2023-04-25T04:44:46;95842.78;;;4.35;100.00
48041;BME280;33815;48.386;11.738;2023-04-25T04:47:11;95850.38;;;4.37;100.00
48041;BME280;33815;48.386;11.738;2023-04-25T04:49:37;95836.09;;;4.33;100.00
48041;BME280;33815;48.386;11.738;2023-04-25T04:52:02;95838.59;;;4.44;100.00
48041;BME280;33815;48.386;11.738;2023-04-25T04:54:28;95847.31;;;4.53;100.00
48041;BME280;33815;48.386;11.738;2023-04-25T04:56:53;95830.72;;;4.45;100.00
48041;BME280;33815;48.386;11.738;2023-04-25T04:59:18;95851.00;;;4.60;100.00
48041;BME280;33815;48.386;11.738;2023-04-25T05:01:44;95852.22;;;4.66;100.00
48041;BME280;33815;48.386;11.738;2023-04-25T05:04:09;95851.59;;;4.83;100.00
48041;BME280;33815;48.386;11.738;2023-04-25T05:06:34;95853.22;;;4.74;100.00
48041;BME280;33815;48.386;11.738;2023-04-25T05:09:00;95847.38;;;4.82;100.00
48041;BME280;33815;48.386;11.738;2023-04-25T05:11:25;95845.91;;;4.99;100.00
48041;BME280;33815;48.386;11.738;2023-04-25T05:13:52;95848.38;;;5.10;100.00
48041;BME280;33815;48.386;11.738;2023-04-25T05:16:18;95845.56;;;5.13;100.00
48041;BME280;33815;48.386;11.738;2023-04-25T05:18:43;95837.66;;;5.15;100.00
48041;BME280;33815;48.386;11.738;2023-04-25T05:21:08;95838.34;;;5.27;100.00
48041;BME280;33815;48.386;11.738;2023-04-25T05:23:33;95828.28;;;5.24;100.00
48041;BME280;33815;48.386;11.738;2023-04-25T05:25:59;95831.94;;;5.21;100.00
48041;BME280;33815;48.386;11.738;2023-04-25T05:28:25;95827.19;;;5.36;100.00
48041;BME280;33815;48.386;11.738;2023-04-25T05:30:50;95822.41;;;5.22;100.00
48041;BME280;33815;48.386;11.738;2023-04-25T05:33:15;95828.41;;;5.22;100.00
48041;BME280;33815;48.386;11.738;2023-04-25T05:35:41;95821.88;;;5.18;100.00
48041;BME280;33815;48.386;11.738;2023-04-25T05:38:06;95815.34;;;5.14;100.00
48041;BME280;33815;48.386;11.738;2023-04-25T05:40:32;95811.56;;;5.08;100.00
48041;BME280;33815;48.386;11.738;2023-04-25T05:42:57;95821.47;;;5.23;100.00
48041;BME280;33815;48.386;11.738;2023-04-25T05:45:22;95825.56;;;5.25;100.00
48041;BME280;33815;48.386;11.738;2023-04-25T05:47:48;95822.84;;;5.27;100.00
48041;BME280;33815;48.386;11.738;2023-04-25T05:50:13;95814.81;;;5.40;100.00
48041;BME280;33815;48.386;11.738;2023-04-25T05:52:38;95836.97;;;5.72;100.00
48041;BME280;33815;48.386;11.738;2023-04-25T05:55:04;95827.69;;;5.79;100.00
48041;BME280;33815;48.386;11.738;2023-04-25T05:57:29;95835.97;;;5.92;100.00
48041;BME280;33815;48.386;11.738;2023-04-25T05:59:55;95843.47;;;6.05;100.00
48041;BME280;33815;48.386;11.738;2023-04-25T06:02:20;95835.41;;;6.08;100.00
48041;BME280;33815;48.386;11.738;2023-04-25T06:04:47;95834.03;;;6.14;100.00
48041;BME280;33815;48.386;11.738;2023-04-25T06:07:12;95819.72;;;6.20;100.00
48041;BME280;33815;48.386;11.738;2023-04-25T06:09:38;95841.44;;;6.37;100.00
48041;BME280;33815;48.386;11.738;2023-04-25T06:12:05;95842.16;;;6.29;100.00
48041;BME280;33815;48.386;11.738;2023-04-25T06:14:30;95854.03;;;6.22;100.00
48041;BME280;33815;48.386;11.738;2023-04-25T06:16:56;95836.47;;;6.15;100.00
48041;BME280;33815;48.386;11.738;2023-04-25T06:19:21;95852.38;;;6.30;100.00
48041;BME280;33815;48.386;11.738;2023-04-25T06:21:46;95850.88;;;6.28;100.00
48041;BME280;33815;48.386;11.738;2023-04-25T06:24:12;95837.09;;;6.37;100.00
48041;BME280;33815;48.386;11.738;2023-04-25T06:26:37;95852.47;;;6.76;100.00
48041;BME280;33815;48.386;11.738;2023-04-25T06:29:02;95849.72;;;6.78;100.00
48041;BME280;33815;48.386;11.738;2023-04-25T06:31:28;95844.00;;;6.74;100.00
48041;BME280;33815;48.386;11.738;2023-04-25T06:33:54;95840.97;;;6.79;100.00
48041;BME280;33815;48.386;11.738;2023-04-25T06:36:20;95832.16;;;6.44;100.00
48041;BME280;33815;48.386;11.738;2023-04-25T06:38:53;95852.59;;;6.47;100.00
48041;BME280;33815;48.386;11.738;2023-04-25T06:41:18;95853.19;;;6.31;100.00
48041;BME280;33815;48.386;11.738;2023-04-25T06:43:44;95844.41;;;6.04;100.00
48041;BME280;33815;48.386;11.738;2023-04-25T06:46:09;95857.19;;;6.06;100.00
48041;BME280;33815;48.386;11.738;2023-04-25T06:48:34;95864.16;;;5.95;100.00
48041;BME280;33815;48.386;11.738;2023-04-25T06:51:00;95859.13;;;5.84;100.00
48041;BME280;33815;48.386;11.738;2023-04-25T06:53:25;95851.13;;;5.48;100.00
48041;BME280;33815;48.386;11.738;2023-04-25T06:55:50;95868.94;;;5.31;100.00
48041;BME280;33815;48.386;11.738;2023-04-25T06:58:15;95860.91;;;5.15;100.00
48041;BME280;33815;48.386;11.738;2023-04-25T07:00:41;95861.69;;;5.06;100.00
48041;BME280;33815;48.386;11.738;2023-04-25T07:03:06;95847.13;;;4.85;100.00
48041;BME280;33815;48.386;11.738;2023-04-25T07:05:32;95865.22;;;4.95;100.00
48041;BME280;33815;48.386;11.738;2023-04-25T07:07:57;95836.66;;;4.77;100.00
48041;BME280;33815;48.386;11.738;2023-04-25T07:10:22;95839.50;;;4.84;100.00
48041;BME280;33815;48.386;11.738;2023-04-25T07:12:48;95845.00;;;5.20;100.00
48041;BME280;33815;48.386;11.738;2023-04-25T07:15:13;95845.94;;;5.28;100.00
48041;BME280;33815;48.386;11.738;2023-04-25T07:17:38;95853.19;;;5.35;100.00
48041;BME280;33815;48.386;11.738;2023-04-25T07:20:04;95837.53;;;5.36;100.00
48041;BME280;33815;48.386;11.738;2023-04-25T07:22:31;95856.84;;;5.52;100.00
48041;BME280;33815;48.386;11.738;2023-04-25T07:24:57;95855.06;;;5.62;100.00
48041;BME280;33815;48.386;11.738;2023-04-25T07:27:22;95852.63;;;5.70;100.00
48041;BME280;33815;48.386;11.738;2023-04-25T07:29:47;95846.84;;;6.06;100.00
48041;BME280;33815;48.386;11.738;2023-04-25T07:32:12;95844.56;;;6.03;100.00
48041;BME280;33815;48.386;11.738;2023-04-25T07:34:39;95855.69;;;6.13;100.00
48041;BME280;33815;48.386;11.738;2023-04-25T07:37:04;95850.94;;;6.08;100.00
48041;BME280;33815;48.386;11.738;2023-04-25T07:39:30;95833.34;;;6.22;100.00
48041;BME280;33815;48.386;11.738;2023-04-25T07:41:56;95845.50;;;6.49;100.00
48041;BME280;33815;48.386;11.738;2023-04-25T07:44:23;95846.84;;;6.53;100.00
48041;BME280;33815;48.386;11.738;2023-04-25T07:46:48;95846.84;;;6.81;100.00
48041;BME280;33815;48.386;11.738;2023-04-25T07:49:13;95822.81;;;7.25;100.00
48041;BME280;33815;48.386;11.738;2023-04-25T07:51:39;95848.97;;;7.13;100.00
48041;BME280;33815;48.386;11.738;2023-04-25T07:54:04;95837.72;;;7.23;100.00
48041;BME280;33815;48.386;11.738;2023-04-25T07:56:30;95838.88;;;7.64;100.00
48041;BME280;33815;48.386;11.738;2023-04-25T07:58:55;95828.22;;;8.89;100.00
48041;BME280;33815;48.386;11.738;2023-04-25T08:01:21;95822.25;;;10.37;100.00
48041;BME280;33815;48.386;11.738;2023-04-25T08:03:47;95812.69;;;11.23;100.00
48041;BME280;33815;48.386;11.738;2023-04-25T08:06:12;95833.75;;;11.22;89.88
48041;BME280;33815;48.386;11.738;2023-04-25T08:08:37;95830.91;;;11.08;88.04
48041;BME280;33815;48.386;11.738;2023-04-25T08:11:02;95814.38;;;10.93;86.13
48041;BME280;33815;48.386;11.738;2023-04-25T08:13:28;95810.22;;;11.07;88.92
48041;BME280;33815;48.386;11.738;2023-04-25T08:15:53;95813.94;;;11.59;92.22
48041;BME280;33815;48.386;11.738;2023-04-25T08:18:19;95823.09;;;11.93;88.28
48041;BME280;33815;48.386;11.738;2023-04-25T08:20:45;95809.94;;;12.09;86.36
48041;BME280;33815;48.386;11.738;2023-04-25T08:23:10;95813.53;;;12.08;86.23
48041;BME280;33815;48.386;11.738;2023-04-25T08:25:35;95827.44;;;11.62;82.24
48041;BME280;33815;48.386;11.738;2023-04-25T08:28:01;95824.75;;;11.01;85.10
48041;BME280;33815;48.386;11.738;2023-04-25T08:30:28;95825.03;;;10.35;90.51
48041;BME280;33815;48.386;11.738;2023-04-25T08:32:53;95835.13;;;9.97;88.00
48041;BME280;33815;48.386;11.738;2023-04-25T08:35:18;95825.06;;;9.45;89.01
48041;BME280;33815;48.386;11.738;2023-04-25T08:37:43;95833.97;;;9.09;93.05
48041;BME280;33815;48.386;11.738;2023-04-25T08:40:12;95819.81;;;9.12;92.63
48041;BME280;33815;48.386;11.738;2023-04-25T08:42:40;95818.25;;;9.76;97.51
48041;BME280;33815;48.386;11.738;2023-04-25T08:45:07;95821.06;;;10.48;95.20
48041;BME280;33815;48.386;11.738;2023-04-25T08:47:33;95827.16;;;10.71;89.92
48041;BME280;33815;48.386;11.738;2023-04-25T08:50:03;95822.50;;;10.58;80.94
48041;BME280;33815;48.386;11.738;2023-04-25T08:52:35;95807.59;;;10.75;86.87
48041;BME280;33815;48.386;11.738;2023-04-25T08:55:01;95820.34;;;10.70;85.18
48041;BME280;33815;48.386;11.738;2023-04-25T08:57:27;95810.28;;;9.94;86.42
48041;BME280;33815;48.386;11.738;2023-04-25T08:59:53;95839.97;;;9.09;87.18
48041;BME280;33815;48.386;11.738;2023-04-25T09:02:19;95839.28;;;8.22;95.47
48041;BME280;33815;48.386;11.738;2023-04-25T09:04:46;95855.53;;;7.80;100.00
48041;BME280;33815;48.386;11.738;2023-04-25T09:07:11;95862.44;;;7.35;100.00
48041;BME280;33815;48.386;11.738;2023-04-25T09:09:37;95855.69;;;7.06;100.00
48041;BME280;33815;48.386;11.738;2023-04-25T09:12:02;95851.22;;;6.80;100.00
48041;BME280;33815;48.386;11.738;2023-04-25T09:14:28;95850.13;;;6.73;100.00
48041;BME280;33815;48.386;11.738;2023-04-25T09:19:31;95839.13;;;6.71;100.00
48041;BME280;33815;48.386;11.738;2023-04-25T09:21:59;95846.78;;;6.63;100.00
48041;BME280;33815;48.386;11.738;2023-04-25T09:24:39;95843.91;;;6.66;100.00
48041;BME280;33815;48.386;11.738;2023-04-25T09:27:06;95839.81;;;6.91;100.00
48041;BME280;33815;48.386;11.738;2023-04-25T09:29:34;95841.19;;;7.31;100.00
48041;BME280;33815;48.386;11.738;2023-04-25T09:34:41;95841.06;;;8.48;100.00
48041;BME280;33815;48.386;11.738;2023-04-25T09:37:09;95828.03;;;9.50;100.00
48041;BME280;33815;48.386;11.738;2023-04-25T09:39:34;95831.22;;;9.93;100.00
48041;BME280;33815;48.386;11.738;2023-04-25T09:42:00;95832.03;;;10.74;100.00
48041;BME280;33815;48.386;11.738;2023-04-25T09:44:25;95831.88;;;10.76;89.31
48041;BME280;33815;48.386;11.738;2023-04-25T09:46:52;95831.81;;;10.28;94.99
48041;BME280;33815;48.386;11.738;2023-04-25T09:49:20;95828.50;;;9.78;94.20
48041;BME280;33815;48.386;11.738;2023-04-25T09:51:59;95854.16;;;9.48;93.70
48041;BME280;33815;48.386;11.738;2023-04-25T09:54:25;95853.03;;;9.59;94.44
48041;BME280;33815;48.386;11.738;2023-04-25T09:56:52;95849.28;;;10.03;96.29
48041;BME280;33815;48.386;11.738;2023-04-25T09:59:21;95837.94;;;10.68;83.83
48041;BME280;33815;48.386;11.738;2023-04-25T10:01:48;95823.88;;;11.09;72.16
48041;BME280;33815;48.386;11.738;2023-04-25T10:04:18;95834.56;;;11.45;76.52
48041;BME280;33815;48.386;11.738;2023-04-25T10:06:45;95820.81;;;12.13;78.83
48041;BME280;33815;48.386;11.738;2023-04-25T10:09:12;95820.38;;;12.39;68.05
48041;BME280;33815;48.386;11.738;2023-04-25T10:11:38;95821.38;;;12.68;73.15
48041;BME280;33815;48.386;11.738;2023-04-25T10:14:04;95804.81;;;12.46;66.82
48041;BME280;33815;48.386;11.738;2023-04-25T10:16:30;95817.03;;;12.75;69.28
48041;BME280;33815;48.386;11.738;2023-04-25T10:18:56;95829.56;;;12.35;66.46
48041;BME280;33815;48.386;11.738;2023-04-25T10:21:22;95839.00;;;12.06;69.91
48041;BME280;33815;48.386;11.738;2023-04-25T10:23:49;95828.72;;;11.43;71.17
48041;BME280;33815;48.386;11.738;2023-04-25T10:26:14;95835.06;;;11.18;69.58
48041;BME280;33815;48.386;11.738;2023-04-25T10:29:10;95835.69;;;11.28;67.36
48041;BME280;33815;48.386;11.738;2023-04-25T10:31:45;95818.69;;;11.55;69.49
48041;BME280;33815;48.386;11.738;2023-04-25T10:34:10;95817.25;;;12.29;62.53
48041;BME280;33815;48.386;11.738;2023-04-25T10:36:35;95824.75;;;12.98;66.38
48041;BME280;33815;48.386;11.738;2023-04-25T10:39:04;95816.13;;;13.19;63.01
48041;BME280;33815;48.386;11.738;2023-04-25T10:41:45;95801.91;;;13.07;60.38
48041;BME280;33815;48.386;11.738;2023-04-25T10:44:11;95811.06;;;12.96;67.71
48041;BME280;33815;48.386;11.738;2023-04-25T10:46:36;95825.06;;;12.59;61.45
48041;BME280;33815;48.386;11.738;2023-04-25T10:49:02;95833.81;;;11.60;65.30
48041;BME280;33815;48.386;11.738;2023-04-25T10:51:29;95869.91;;;10.45;79.44
48041;BME280;33815;48.386;11.738;2023-04-25T10:53:59;95864.84;;;9.12;91.49
48041;BME280;33815;48.386;11.738;2023-04-25T10:56:29;95861.16;;;8.46;100.00
48041;BME280;33815;48.386;11.738;2023-04-25T10:59:21;95868.50;;;8.24;100.00
48041;BME280;33815;48.386;11.738;2023-04-25T11:01:52;95868.81;;;8.21;100.00
48041;BME280;33815;48.386;11.738;2023-04-25T11:07:13;95873.56;;;8.52;99.31
48041;BME280;33815;48.386;11.738;2023-04-25T11:09:45;95865.84;;;8.77;98.97
48041;BME280;33815;48.386;11.738;2023-04-25T11:12:10;95882.34;;;8.59;96.78
48041;BME280;33815;48.386;11.738;2023-04-25T11:14:40;95882.00;;;8.28;99.76
48041;BME280;33815;48.386;11.738;2023-04-25T11:17:05;95895.41;;;8.23;100.00
48041;BME280;33815;48.386;11.738;2023-04-25T11:19:31;95879.19;;;7.59;100.00
48041;BME280;33815;48.386;11.738;2023-04-25T11:22:00;95895.72;;;7.40;100.00
48041;BME280;33815;48.386;11.738;2023-04-25T11:24:33;95899.50;;;7.63;100.00
48041;BME280;33815;48.386;11.738;2023-04-25T11:27:00;95898.66;;;7.99;100.00
48041;BME280;33815;48.386;11.738;2023-04-25T11:29:30;95896.88;;;8.26;100.00
48041;BME280;33815;48.386;11.738;2023-04-25T11:31:56;95903.44;;;8.56;100.00
48041;BME280;33815;48.386;11.738;2023-04-25T11:34:23;95893.59;;;8.68;100.00
48041;BME280;33815;48.386;11.738;2023-04-25T11:36:50;95908.53;;;9.08;100.00
48041;BME280;33815;48.386;11.738;2023-04-25T11:39:15;95898.16;;;9.17;96.91
48041;BME280;33815;48.386;11.738;2023-04-25T11:41:41;95905.03;;;9.42;96.75
48041;BME280;33815;48.386;11.738;2023-04-25T11:44:07;95910.25;;;9.42;93.42
48041;BME280;33815;48.386;11.738;2023-04-25T11:46:35;95898.72;;;9.53;90.83
48041;BME280;33815;48.386;11.738;2023-04-25T11:49:01;95919.56;;;9.62;92.68
48041;BME280;33815;48.386;11.738;2023-04-25T11:51:26;95898.38;;;9.32;90.60
48041;BME280;33815;48.386;11.738;2023-04-25T11:53:52;95928.47;;;9.00;93.76
48041;BME280;33815;48.386;11.738;2023-04-25T11:56:17;95918.66;;;8.77;96.66
48041;BME280;33815;48.386;11.738;2023-04-25T11:59:02;95926.09;;;8.46;95.04
48041;BME280;33815;48.386;11.738;2023-04-25T12:01:39;95938.03;;;7.94;97.53
48041;BME280;33815;48.386;11.738;2023-04-25T12:04:14;95950.47;;;7.36;100.00
48041;BME280;33815;48.386;11.738;2023-04-25T12:06:41;95949.34;;;6.36;100.00
48041;BME280;33815;48.386;11.738;2023-04-25T12:09:09;95954.81;;;5.74;100.00
48041;BME280;33815;48.386;11.738;2023-04-25T12:11:49;95961.06;;;5.62;100.00
48041;BME280;33815;48.386;11.738;2023-04-25T12:14:25;95950.97;;;5.49;100.00
48041;BME280;33815;48.386;11.738;2023-04-25T12:16:54;95961.59;;;5.56;100.00
48041;BME280;33815;48.386;11.738;2023-04-25T12:19:21;95970.28;;;5.45;100.00
48041;BME280;33815;48.386;11.738;2023-04-25T12:21:47;95969.06;;;5.49;100.00
48041;BME280;33815;48.386;11.738;2023-04-25T12:24:14;95971.41;;;5.62;100.00
48041;BME280;33815;48.386;11.738;2023-04-25T12:26:52;95978.22;;;5.63;100.00
48041;BME280;33815;48.386;11.738;2023-04-25T12:29:28;95990.44;;;5.61;100.00
48041;BME280;33815;48.386;11.738;2023-04-25T12:31:54;95985.25;;;5.61;100.00
48041;BME280;33815;48.386;11.738;2023-04-25T12:34:20;95976.41;;;5.54;100.00
48041;BME280;33815;48.386;11.738;2023-04-25T12:36:46;95991.13;;;5.63;100.00
48041;BME280;33815;48.386;11.738;2023-04-25T12:39:22;95979.28;;;5.51;100.00
48041;BME280;33815;48.386;11.738;2023-04-25T12:41:48;95999.53;;;5.55;100.00
48041;BME280;33815;48.386;11.738;2023-04-25T12:44:14;95999.97;;;5.60;100.00
48041;BME280;33815;48.386;11.738;2023-04-25T12:46:40;95976.06;;;5.68;100.00
48041;BME280;33815;48.386;11.738;2023-04-25T12:49:07;95980.78;;;5.53;100.00
48041;BME280;33815;48.386;11.738;2023-04-25T12:51:36;96003.09;;;5.54;100.00
48041;BME280;33815;48.386;11.738;2023-04-25T12:54:03;95987.94;;;5.40;100.00